Time;durP1;ratioP1;P1;durP2;ratioP2;P2;SDS_P1;SDS_P2;PMS_P1;PMS_P2;Temp;Humidity;BMP_temperature;BMP_pressure;BME280_temperature;BME280_humidity;BME280_pressure;Samples;Min_cycle;Max_cycle;Signal;HPM_P1;HPM_P2
2023/06/27 00:00:30;;;;;;;6.63;2.10;;;;;;;16.17;98.77;101867.47;5007811;28;20029;-58
2023/06/27 00:02:55;;;;;;;4.30;1.77;;;;;;;16.16;99.59;101857.88;5008345;28;20513;-61
2023/06/27 00:05:21;;;;;;;7.55;2.60;;;;;;;16.15;99.60;101861.34;5007221;28;20022;-61
2023/06/27 00:07:47;;;;;;;7.07;2.42;;;;;;;16.15;99.42;101865.69;5007039;28;20025;-60
2023/06/27 00:10:13;;;;;;;5.30;2.55;;;;;;;16.12;99.27;101860.38;5008053;28;20026;-60
2023/06/27 00:12:39;;;;;;;6.28;2.55;;;;;;;16.13;99.07;101856.91;5007988;28;20034;-60
2023/06/27 00:15:05;;;;;;;6.43;3.08;;;;;;;16.15;99.86;101860.47;5007751;28;20394;-61
2023/06/27 00:17:33;;;;;;;5.05;2.60;;;;;;;16.17;99.69;101858.78;5007845;28;20049;-60
2023/06/27 00:19:59;;;;;;;9.82;3.22;;;;;;;16.18;98.52;101865.75;5008354;28;20125;-61
2023/06/27 00:22:26;;;;;;;8.45;3.20;;;;;;;16.19;97.89;101857.94;5008416;28;20381;-61
2023/06/27 00:24:52;;;;;;;6.53;2.25;;;;;;;16.21;97.84;101857.97;5007609;28;20029;-61
2023/06/27 00:27:17;;;;;;;7.03;2.80;;;;;;;16.22;98.80;101858.88;5007657;28;20030;-61
2023/06/27 00:29:43;;;;;;;8.65;2.95;;;;;;;16.22;97.82;101867.59;5007159;28;20045;-61
2023/06/27 00:32:09;;;;;;;7.00;2.70;;;;;;;16.26;97.56;101869.44;5007889;28;20068;-60
2023/06/27 00:34:34;;;;;;;5.97;2.70;;;;;;;16.29;97.25;101866.91;5007524;28;20366;-60
2023/06/27 00:36:59;;;;;;;6.53;2.30;;;;;;;16.28;97.43;101852.06;5007103;28;20042;-61
2023/06/27 00:39:24;;;;;;;8.48;2.78;;;;;;;16.26;97.94;101858.97;5007074;28;20025;-60
2023/06/27 00:41:51;;;;;;;5.43;2.30;;;;;;;16.25;97.31;101857.22;5007590;28;20033;-61
2023/06/27 00:44:16;;;;;;;6.40;2.58;;;;;;;16.26;97.52;101856.34;5007124;28;20091;-60
2023/06/27 00:46:42;;;;;;;7.53;2.58;;;;;;;16.28;97.42;101854.66;5006789;28;20026;-61
2023/06/27 00:49:10;;;;;;;5.70;2.25;;;;;;;16.26;96.64;101858.97;5007673;28;20030;-60
2023/06/27 00:51:38;;;;;;;6.72;2.47;;;;;;;16.23;96.36;101858.91;5007097;28;20391;-60
2023/06/27 00:54:03;;;;;;;6.45;2.78;;;;;;;16.23;96.55;101856.28;5007491;28;20025;-60
2023/06/27 00:56:29;;;;;;;7.43;2.65;;;;;;;16.20;97.38;101853.59;5007477;28;20026;-61
2023/06/27 00:58:58;;;;;;;5.60;2.45;;;;;;;16.18;97.01;101865.75;5007303;28;20053;-61
2023/06/27 01:01:23;;;;;;;8.68;2.55;;;;;;;16.18;97.86;101863.13;5006352;28;20131;-59
2023/06/27 01:03:49;;;;;;;7.68;3.38;;;;;;;16.18;97.49;101860.53;5007918;28;20080;-60
2023/06/27 01:06:22;;;;;;;7.22;2.63;;;;;;;16.17;98.66;101861.38;5007005;28;20030;-60
2023/06/27 01:08:56;;;;;;;5.05;2.80;;;;;;;16.16;98.89;101863.09;5007250;28;20022;-61
2023/06/27 01:11:26;;;;;;;7.25;2.58;;;;;;;16.13;98.32;101867.38;5007138;28;20029;-61
2023/06/27 01:13:55;;;;;;;6.68;2.67;;;;;;;16.12;97.64;101860.38;5007296;28;20041;-61
2023/06/27 01:16:23;;;;;;;6.53;2.88;;;;;;;16.12;98.53;101869.09;5006489;28;20091;-61
2023/06/27 01:18:50;;;;;;;5.13;2.42;;;;;;;16.11;99.22;101869.06;5008298;28;20048;-60
2023/06/27 01:21:19;;;;;;;6.93;2.55;;;;;;;16.12;98.42;101863.00;5010856;28;20034;-60
2023/06/27 01:23:58;;;;;;;4.38;2.58;;;;;;;16.11;98.59;101861.22;5003604;28;20486;-60
2023/06/27 01:26:23;;;;;;;8.75;2.90;;;;;;;16.06;98.20;101856.75;5011056;28;20104;-60
2023/06/27 01:28:49;;;;;;;6.57;2.70;;;;;;;16.08;99.15;101867.28;5010568;28;20030;-58
2023/06/27 01:31:37;;;;;;;6.72;2.90;;;;;;;16.06;98.93;101859.34;5010825;28;20482;-61
2023/06/27 01:34:10;;;;;;;4.93;2.55;;;;;;;16.04;98.92;101863.69;5000164;28;20028;-61
2023/06/27 01:36:44;;;;;;;5.47;2.70;;;;;;;16.03;99.46;101861.91;5010203;28;20081;-60
2023/06/27 01:39:15;;;;;;;6.07;2.83;;;;;;;16.04;98.90;101866.31;5011000;28;20022;-60
2023/06/27 01:41:45;;;;;;;6.03;2.90;;;;;;;16.02;99.26;101864.47;5010791;28;20499;-60
2023/06/27 01:44:14;;;;;;;9.93;3.30;;;;;;;15.99;99.26;101865.28;5010366;28;20439;-60
2023/06/27 01:46:40;;;;;;;6.00;2.75;;;;;;;15.97;100.00;101861.72;5010651;28;20497;-60
2023/06/27 01:49:07;;;;;;;8.77;2.90;;;;;;;15.94;100.00;101857.28;5010400;28;20021;-60
2023/06/27 01:51:32;;;;;;;6.70;2.88;;;;;;;15.93;100.00;101859.88;5009424;28;20393;-60
2023/06/27 01:53:58;;;;;;;7.82;2.63;;;;;;;15.91;100.00;101857.22;5010785;28;20030;-61
2023/06/27 01:56:23;;;;;;;8.18;3.03;;;;;;;15.91;100.00;101861.56;5009986;28;20032;-61
2023/06/27 01:58:49;;;;;;;5.05;2.63;;;;;;;15.90;100.00;101854.56;5010581;28;20165;-61
2023/06/27 02:01:14;;;;;;;7.00;3.42;;;;;;;15.89;100.00;101858.00;5010524;28;20026;-60
2023/06/27 02:03:39;;;;;;;6.22;2.72;;;;;;;15.89;100.00;101858.00;5010858;28;20390;-60
2023/06/27 02:06:05;;;;;;;6.57;2.92;;;;;;;15.88;100.00;101854.53;5009856;28;20505;-61
2023/06/27 02:08:30;;;;;;;4.70;2.22;;;;;;;15.85;100.00;101846.59;5009973;28;20580;-60
2023/06/27 02:10:55;;;;;;;6.40;2.63;;;;;;;15.83;100.00;101843.94;5009872;28;20307;-61
2023/06/27 02:13:20;;;;;;;6.65;2.90;;;;;;;15.79;100.00;101847.34;5010340;28;20018;-61
2023/06/27 02:15:46;;;;;;;7.20;2.63;;;;;;;15.75;100.00;101840.25;5009290;28;20022;-61
2023/06/27 02:18:11;;;;;;;9.15;3.35;;;;;;;15.73;100.00;101844.56;5010099;28;20014;-61
2023/06/27 02:20:36;;;;;;;10.00;3.63;;;;;;;15.74;100.00;101843.69;5009660;28;20034;-61
2023/06/27 02:23:02;;;;;;;9.02;3.13;;;;;;;15.73;100.00;101837.59;5009974;28;20108;-60
2023/06/27 02:25:27;;;;;;;7.95;3.13;;;;;;;15.75;100.00;101839.38;5009640;28;20025;-61
2023/06/27 02:27:52;;;;;;;8.10;2.58;;;;;;;15.76;100.00;101839.41;5009599;28;20029;-59
2023/06/27 02:30:18;;;;;;;7.72;2.60;;;;;;;15.77;100.00;101846.41;5008909;28;20026;-60
2023/06/27 02:32:43;;;;;;;8.85;2.55;;;;;;;15.72;100.00;101842.78;5010140;28;20026;-61
2023/06/27 02:35:08;;;;;;;8.57;2.97;;;;;;;15.68;100.00;101844.44;5008034;28;20100;-61
2023/06/27 02:37:33;;;;;;;6.90;2.70;;;;;;;15.68;100.00;101839.22;5009754;28;20029;-61
2023/06/27 02:39:59;;;;;;;7.50;2.90;;;;;;;15.66;100.00;101827.84;5005278;28;20102;-60
2023/06/27 02:42:24;;;;;;;8.70;2.92;;;;;;;15.59;100.00;101826.78;5009405;28;20390;-60
2023/06/27 02:44:49;;;;;;;7.47;3.00;;;;;;;15.56;100.00;101828.44;5009222;28;20022;-60
2023/06/27 02:47:15;;;;;;;7.13;2.70;;;;;;;15.54;100.00;101835.34;5009210;28;20030;-60
2023/06/27 02:49:42;;;;;;;6.88;2.83;;;;;;;15.53;100.00;101839.66;5009094;28;20033;-61
2023/06/27 02:52:07;;;;;;;6.43;2.65;;;;;;;15.52;100.00;101837.91;5009737;28;20014;-61
2023/06/27 02:54:33;;;;;;;6.50;2.92;;;;;;;15.54;100.00;101830.97;5009649;28;20036;-61
2023/06/27 02:56:58;;;;;;;8.25;3.13;;;;;;;15.53;100.00;101824.00;5008966;28;20025;-61
2023/06/27 02:59:23;;;;;;;8.50;3.00;;;;;;;15.50;100.00;101823.94;5008531;28;20073;-60
2023/06/27 03:01:48;;;;;;;10.38;3.00;;;;;;;15.46;100.00;101835.13;5009341;28;20029;-60
2023/06/27 03:04:19;;;;;;;10.43;3.88;;;;;;;15.43;100.00;101838.56;5009026;28;20018;-59
2023/06/27 03:06:45;;;;;;;;;;;;;;;15.42;100.00;101842.00;5009402;28;20029;-60
2023/06/27 03:09:11;;;;;;;6.10;2.38;;;;;;;15.43;100.00;101848.09;5008669;28;19921;-59
2023/06/27 03:11:36;;;;;;;5.28;2.65;;;;;;;15.42;100.00;101838.47;5008523;28;20058;-60
2023/06/27 03:14:01;;;;;;;6.97;3.58;;;;;;;15.40;100.00;101841.06;5007285;28;20402;-60
2023/06/27 03:16:26;;;;;;;7.13;2.97;;;;;;;15.40;100.00;101842.81;5007279;28;20049;-60
2023/06/27 03:18:52;;;;;;;7.90;3.03;;;;;;;15.40;100.00;101848.03;5006596;28;20021;-59
2023/06/27 03:21:17;;;;;;;9.35;2.63;;;;;;;15.40;100.00;101848.03;5006467;28;20028;-60
2023/06/27 03:23:42;;;;;;;4.88;2.50;;;;;;;15.38;100.00;101849.72;5006578;28;20021;-61
2023/06/27 03:26:08;;;;;;;9.13;2.85;;;;;;;15.32;100.00;101846.09;5007411;28;20029;-60
2023/06/27 03:28:33;;;;;;;8.77;3.00;;;;;;;15.32;100.00;101843.47;5007617;28;20425;-61
2023/06/27 03:30:58;;;;;;;9.00;3.22;;;;;;;15.31;100.00;101840.81;5009017;28;20025;-60
2023/06/27 03:33:23;;;;;;;7.30;2.83;;;;;;;15.29;100.00;101840.75;5008716;28;20053;-61
2023/06/27 03:35:49;;;;;;;8.18;3.03;;;;;;;15.28;100.00;101846.81;5008828;28;20489;-61
2023/06/27 03:38:14;;;;;;;7.82;3.20;;;;;;;15.27;100.00;101847.69;5008407;28;20033;-61
2023/06/27 03:40:40;;;;;;;5.00;2.33;;;;;;;15.28;100.00;101838.09;5008028;28;20108;-60
2023/06/27 03:43:05;;;;;;;6.85;2.67;;;;;;;15.28;100.00;101843.31;5007851;28;20462;-60
2023/06/27 03:45:31;;;;;;;8.13;2.92;;;;;;;15.29;100.00;101843.34;5008331;28;20025;-60
2023/06/27 03:47:56;;;;;;;8.13;3.05;;;;;;;15.30;100.00;101847.75;5008798;28;20022;-61
2023/06/27 03:50:22;;;;;;;9.23;3.00;;;;;;;15.32;100.00;101843.47;5008345;28;20030;-62
2023/06/27 03:52:47;;;;;;;6.47;2.80;;;;;;;15.33;100.00;101845.22;5008388;28;20084;-60
2023/06/27 03:55:12;;;;;;;5.03;2.40;;;;;;;15.34;100.00;101849.59;5008356;28;20576;-60
2023/06/27 03:57:38;;;;;;;9.55;3.67;;;;;;;15.34;100.00;101846.97;5008593;28;20029;-61
2023/06/27 04:00:07;;;;;;;7.93;2.42;;;;;;;15.34;100.00;101853.97;4994617;28;20441;-60
2023/06/27 04:02:32;;;;;;;8.85;3.55;;;;;;;15.33;100.00;101854.78;4988598;28;20030;-61
2023/06/27 04:04:57;;;;;;;8.27;3.08;;;;;;;15.32;100.00;101851.31;4988262;28;20022;-60
2023/06/27 04:07:23;;;;;;;10.57;3.67;;;;;;;15.29;100.00;101851.19;4988787;28;20593;-61
2023/06/27 04:09:48;;;;;;;9.38;3.33;;;;;;;15.30;100.00;101855.59;4987667;28;20310;-61
2023/06/27 04:12:13;;;;;;;7.28;2.80;;;;;;;15.31;100.00;101853.88;4988348;28;20049;-61
2023/06/27 04:14:38;;;;;;;6.82;2.83;;;;;;;15.28;100.00;101854.66;4987865;28;20497;-61
2023/06/27 04:17:04;;;;;;;9.90;2.72;;;;;;;15.23;100.00;101853.66;4988436;28;20034;-61
2023/06/27 04:19:29;;;;;;;8.40;3.15;;;;;;;15.19;100.00;101852.66;4988308;28;20033;-60
2023/06/27 04:21:55;;;;;;;10.68;3.47;;;;;;;15.19;100.00;101843.94;5000997;28;20402;-60
2023/06/27 04:24:20;;;;;;;10.10;3.65;;;;;;;15.15;100.00;101849.94;4988438;28;20029;-60
2023/06/27 04:26:45;;;;;;;7.68;3.72;;;;;;;15.15;100.00;101847.31;4987805;28;20037;-60
2023/06/27 04:29:10;;;;;;;12.32;4.45;;;;;;;15.15;100.00;101849.94;4987623;28;20223;-60
2023/06/27 04:31:36;;;;;;;7.90;3.33;;;;;;;15.15;100.00;101852.56;4988289;28;20022;-61
2023/06/27 04:34:01;;;;;;;6.32;3.20;;;;;;;15.13;100.00;101849.88;4988245;28;20099;-61
2023/06/27 04:36:27;;;;;;;6.95;3.58;;;;;;;15.11;100.00;101855.03;4987644;28;20030;-60
2023/06/27 04:38:52;;;;;;;10.85;3.67;;;;;;;15.09;100.00;101868.91;4987992;28;20022;-61
2023/06/27 04:41:18;;;;;;;8.52;3.65;;;;;;;15.07;100.00;101853.22;4987253;28;20022;-60
2023/06/27 04:43:43;;;;;;;9.98;3.72;;;;;;;15.06;100.00;101859.25;4988336;28;20102;-61
2023/06/27 04:46:08;;;;;;;10.88;3.83;;;;;;;15.03;100.00;101864.38;4973443;28;20030;-61
2023/06/27 04:48:34;;;;;;;8.52;3.50;;;;;;;15.01;100.00;101863.44;4988032;28;20018;-61
2023/06/27 04:50:59;;;;;;;8.68;3.90;;;;;;;14.99;100.00;101859.91;4989999;28;20471;-60
2023/06/27 04:53:24;;;;;;;13.70;3.97;;;;;;;14.98;100.00;101860.75;4988033;28;20042;-61
2023/06/27 04:55:51;;;;;;;11.50;3.78;;;;;;;14.95;100.00;101860.66;4992744;28;20093;-60
2023/06/27 04:58:18;;;;;;;11.27;3.78;;;;;;;14.96;100.00;101865.03;4994832;28;20042;-60
2023/06/27 05:00:44;;;;;;;9.73;4.13;;;;;;;14.97;100.00;101864.19;5011270;28;20036;-60
2023/06/27 05:03:11;;;;;;;12.30;4.45;;;;;;;15.01;100.00;101871.28;5011062;28;20365;-59
2023/06/27 05:05:36;;;;;;;9.13;3.88;;;;;;;15.04;100.00;101870.50;5011428;28;20425;-60
2023/06/27 05:08:03;;;;;;;10.35;3.95;;;;;;;15.06;100.00;101864.47;5010825;28;20533;-61
2023/06/27 05:10:29;;;;;;;8.68;4.15;;;;;;;15.08;100.00;101857.56;5007853;28;20033;-61
2023/06/27 05:12:54;;;;;;;10.93;3.30;;;;;;;15.11;100.00;101867.22;5011212;28;20075;-60
2023/06/27 05:15:19;;;;;;;11.98;4.35;;;;;;;15.16;100.00;101870.88;5021443;28;20033;-61
2023/06/27 05:17:51;;;;;;;7.65;3.92;;;;;;;15.24;100.00;101871.06;5020532;28;20111;-60
2023/06/27 05:20:18;;;;;;;6.40;3.38;;;;;;;15.34;100.00;101878.31;5019150;28;20029;-61
2023/06/27 05:22:43;;;;;;;8.73;3.70;;;;;;;15.47;100.00;101870.88;5017779;28;20353;-60
2023/06/27 05:25:09;;;;;;;9.63;4.05;;;;;;;15.56;100.00;101871.09;5024861;28;20040;-61
2023/06/27 05:27:34;;;;;;;11.80;4.57;;;;;;;15.67;100.00;101867.91;5020173;28;20456;-61
2023/06/27 05:29:59;;;;;;;11.02;3.88;;;;;;;15.76;100.00;101870.75;5024231;28;20108;-59
2023/06/27 05:32:24;;;;;;;8.27;4.10;;;;;;;15.91;100.00;101866.78;5021369;28;20025;-60
2023/06/27 05:34:50;;;;;;;10.73;4.55;;;;;;;16.04;100.00;101868.03;5012863;28;20296;-60
2023/06/27 05:37:15;;;;;;;8.85;3.63;;;;;;;16.08;100.00;101869.88;5023946;28;20029;-59
2023/06/27 05:39:40;;;;;;;14.05;4.15;;;;;;;16.16;100.00;101868.34;5014327;28;20038;-61
2023/06/27 05:42:06;;;;;;;12.45;4.20;;;;;;;16.22;100.00;101866.72;5024668;28;20052;-61
2023/06/27 05:44:31;;;;;;;10.00;4.22;;;;;;;16.28;100.00;101862.50;5013188;28;20037;-59
2023/06/27 05:46:56;;;;;;;10.82;4.07;;;;;;;16.33;100.00;101871.34;5023219;28;20109;-60
2023/06/27 05:49:21;;;;;;;11.02;4.55;;;;;;;16.42;100.00;101872.44;5014001;28;20029;-60
2023/06/27 05:51:47;;;;;;;9.25;3.88;;;;;;;16.49;100.00;101865.63;5023944;28;20036;-61
2023/06/27 05:54:12;;;;;;;9.25;4.18;;;;;;;16.56;100.00;101868.44;5014130;28;20021;-61
2023/06/27 05:56:38;;;;;;;9.93;3.80;;;;;;;16.66;100.00;101858.16;5023285;28;20033;-61
2023/06/27 05:59:03;;;;;;;9.43;4.47;;;;;;;16.74;100.00;101869.69;5012873;28;20727;-61
2023/06/27 06:01:29;;;;;;;12.10;4.55;;;;;;;16.78;100.00;101873.28;5029003;28;20413;-61
2023/06/27 06:03:54;;;;;;;10.82;4.18;;;;;;;16.85;100.00;101867.31;5009827;28;20030;-61
2023/06/27 06:06:20;;;;;;;12.52;4.50;;;;;;;16.93;100.00;101872.72;5009374;28;20041;-61
2023/06/27 06:08:45;;;;;;;14.45;4.43;;;;;;;17.01;100.00;101865.03;5010550;28;20053;-60
2023/06/27 06:11:10;;;;;;;10.55;4.57;;;;;;;17.12;100.00;101860.06;5010195;28;20517;-61
2023/06/27 06:13:35;;;;;;;9.05;4.22;;;;;;;17.22;100.00;101856.78;5008927;28;20034;-61
2023/06/27 06:16:01;;;;;;;13.65;4.53;;;;;;;17.34;100.00;101858.75;5009438;28;20030;-62
2023/06/27 06:18:26;;;;;;;10.32;4.30;;;;;;;17.46;100.00;101860.75;5009091;28;20029;-61
2023/06/27 06:20:51;;;;;;;9.93;4.18;;;;;;;17.59;100.00;101864.47;5009849;28;20470;-61
2023/06/27 06:23:16;;;;;;;10.27;4.43;;;;;;;17.73;100.00;101862.13;5009732;28;20030;-61
2023/06/27 06:25:42;;;;;;;8.73;4.38;;;;;;;17.86;100.00;101871.06;5010189;28;20030;-61
2023/06/27 06:28:07;;;;;;;10.15;4.30;;;;;;;17.98;100.00;101873.06;5009588;28;20508;-61
2023/06/27 06:30:32;;;;;;;12.20;4.63;;;;;;;18.12;100.00;101869.75;5009549;28;20026;-62
2023/06/27 06:32:58;;;;;;;7.35;4.05;;;;;;;18.24;100.00;101877.00;5008224;28;20034;-61
2023/06/27 06:35:23;;;;;;;10.15;5.22;;;;;;;18.35;100.00;101877.16;5007995;28;20025;-61
2023/06/27 06:37:48;;;;;;;10.70;4.72;;;;;;;18.43;100.00;101882.53;5008007;28;20747;-60
2023/06/27 06:40:13;;;;;;;8.73;4.30;;;;;;;18.54;100.00;101882.72;5007205;28;20080;-61
2023/06/27 06:42:39;;;;;;;8.80;3.88;;;;;;;18.66;100.00;101882.88;5008333;28;20018;-60
2023/06/27 06:45:04;;;;;;;9.73;4.68;;;;;;;18.78;100.00;101886.56;5008233;28;20022;-61
2023/06/27 06:47:30;;;;;;;11.02;4.85;;;;;;;18.91;100.00;101892.84;5008840;28;20120;-60
2023/06/27 06:49:55;;;;;;;11.13;4.28;;;;;;;18.99;100.00;101890.34;5009501;28;20526;-62
2023/06/27 06:52:20;;;;;;;9.35;3.72;;;;;;;19.11;99.58;101889.59;5009653;28;20026;-61
2023/06/27 06:54:46;;;;;;;9.52;3.97;;;;;;;19.21;100.00;101891.56;4990888;28;20079;-61
2023/06/27 06:57:11;;;;;;;9.45;3.95;;;;;;;19.35;99.85;101889.09;5009321;28;20472;-62
2023/06/27 06:59:38;;;;;;;6.88;3.60;;;;;;;19.48;99.11;101895.34;5007090;28;20050;-62
2023/06/27 07:02:03;;;;;;;9.57;4.20;;;;;;;19.61;98.75;101880.59;5006237;28;20030;-62
2023/06/27 07:04:29;;;;;;;5.97;3.80;;;;;;;19.72;95.38;101893.84;5005909;28;20080;-60
2023/06/27 07:06:54;;;;;;;8.05;4.32;;;;;;;19.85;95.58;101894.88;5004936;28;20382;-61
2023/06/27 07:09:20;;;;;;;10.57;4.32;;;;;;;19.89;92.86;101891.41;5006130;28;20451;-61
2023/06/27 07:11:45;;;;;;;7.50;3.58;;;;;;;19.95;93.49;101885.31;5005533;28;20033;-62
2023/06/27 07:14:12;;;;;;;7.80;3.40;;;;;;;20.03;91.64;101888.03;5006664;28;20171;-61
2023/06/27 07:16:37;;;;;;;9.82;4.07;;;;;;;20.10;90.40;101887.25;5005824;28;20437;-61
2023/06/27 07:19:03;;;;;;;7.60;3.63;;;;;;;20.24;91.98;101891.72;5005317;28;20029;-62
2023/06/27 07:21:28;;;;;;;8.38;3.95;;;;;;;20.35;89.81;101895.34;5005444;28;20263;-62
2023/06/27 07:23:53;;;;;;;8.30;4.20;;;;;;;20.46;86.99;101897.16;5005450;28;20018;-61
2023/06/27 07:26:18;;;;;;;9.00;4.18;;;;;;;20.58;88.79;101891.97;5006577;28;20030;-61
2023/06/27 07:28:44;;;;;;;7.53;3.90;;;;;;;20.70;88.27;101890.31;5005739;28;20056;-60
2023/06/27 07:31:09;;;;;;;6.45;3.45;;;;;;;20.83;88.19;101889.50;4990012;28;20703;-61
2023/06/27 07:33:34;;;;;;;6.20;3.50;;;;;;;20.83;83.11;101891.28;5008538;28;20105;-62
2023/06/27 07:36:00;;;;;;;8.18;2.63;;;;;;;20.87;81.76;101893.91;5008976;28;20485;-62
2023/06/27 07:38:25;;;;;;;6.13;2.72;;;;;;;20.91;83.28;101889.53;5008111;28;20029;-61
2023/06/27 07:40:50;;;;;;;8.82;3.20;;;;;;;21.01;81.80;101884.38;5008566;28;20033;-61
2023/06/27 07:43:15;;;;;;;8.30;3.17;;;;;;;21.07;78.33;101892.28;5008483;28;20516;-61
2023/06/27 07:45:41;;;;;;;7.30;2.63;;;;;;;21.15;77.10;101887.06;5008513;28;20509;-61
2023/06/27 07:48:06;;;;;;;4.25;2.53;;;;;;;21.26;75.08;101893.25;5007984;28;20033;-61
2023/06/27 07:50:31;;;;;;;5.38;2.25;;;;;;;21.33;74.01;101887.13;5008494;28;20037;-62
2023/06/27 07:52:57;;;;;;;6.22;2.58;;;;;;;21.30;74.50;101886.25;5008790;28;20060;-61
2023/06/27 07:55:22;;;;;;;7.30;3.00;;;;;;;21.19;77.22;101888.84;5008082;28;20041;-62
2023/06/27 07:57:47;;;;;;;5.85;2.40;;;;;;;21.06;78.36;101888.78;5008090;28;20069;-61
2023/06/27 08:00:13;;;;;;;9.68;3.08;;;;;;;20.95;77.35;101880.81;5007901;28;20045;-62
2023/06/27 08:02:39;;;;;;;6.30;2.42;;;;;;;20.81;78.15;101882.47;5008623;28;20022;-62
2023/06/27 08:05:05;;;;;;;7.72;2.63;;;;;;;20.72;80.18;101883.31;5007987;28;20026;-61
2023/06/27 08:07:31;;;;;;;5.43;2.50;;;;;;;20.62;79.41;101885.88;5008148;28;20410;-60
2023/06/27 08:09:56;;;;;;;5.90;2.30;;;;;;;20.61;81.90;101891.13;5007118;28;20035;-61
2023/06/27 08:12:21;;;;;;;4.28;2.10;;;;;;;20.67;81.71;101885.03;5008346;28;20424;-62
2023/06/27 08:14:47;;;;;;;4.80;2.20;;;;;;;20.77;80.63;101884.22;5007691;28;20033;-61
2023/06/27 08:17:12;;;;;;;6.28;2.10;;;;;;;20.85;76.10;101885.13;5007686;28;20026;-62
2023/06/27 08:19:38;;;;;;;5.95;1.77;;;;;;;20.87;75.81;101883.38;5007564;28;20049;-62
2023/06/27 08:22:03;;;;;;;4.30;1.70;;;;;;;20.95;74.33;101885.22;5007762;28;20028;-61
2023/06/27 08:24:28;;;;;;;5.05;1.83;;;;;;;21.00;75.15;101886.09;5007854;28;20474;-62
2023/06/27 08:26:55;;;;;;;4.18;1.88;;;;;;;21.04;75.58;101873.84;5006662;28;20032;-62
2023/06/27 08:29:21;;;;;;;6.43;1.60;;;;;;;21.06;73.89;101877.34;5007173;28;20024;-62
2023/06/27 08:31:48;;;;;;;5.10;1.90;;;;;;;21.06;72.90;101886.16;5006963;28;20030;-62
2023/06/27 08:34:13;;;;;;;4.60;1.73;;;;;;;21.04;72.76;101890.53;5007450;28;20029;-62
2023/06/27 08:36:39;;;;;;;6.20;2.25;;;;;;;21.02;72.38;101887.00;5007504;28;20018;-62
2023/06/27 08:39:04;;;;;;;6.97;2.15;;;;;;;21.03;72.57;101880.00;5007348;28;20026;-61
2023/06/27 08:41:29;;;;;;;5.63;2.08;;;;;;;21.04;75.90;101877.34;5007233;28;20832;-61
2023/06/27 08:43:55;;;;;;;5.47;1.63;;;;;;;21.07;75.37;101881.75;5007401;28;20030;-59
2023/06/27 08:46:21;;;;;;;4.65;1.90;;;;;;;21.04;73.82;101874.72;5007943;28;20025;-62
2023/06/27 08:48:47;;;;;;;3.08;1.70;;;;;;;21.05;76.66;101871.19;5006700;28;20022;-62
2023/06/27 08:51:17;;;;;;;6.03;2.15;;;;;;;21.01;69.72;101873.81;5007744;28;20512;-62
2023/06/27 08:53:47;;;;;;;6.00;1.70;;;;;;;21.03;69.32;101872.94;5007670;28;20096;-62
2023/06/27 08:56:15;;;;;;;4.63;1.52;;;;;;;21.06;67.23;101878.25;5007626;28;20066;-62
2023/06/27 08:58:44;;;;;;;3.85;1.50;;;;;;;21.05;69.43;101875.59;5007055;28;20046;-62
2023/06/27 09:01:11;;;;;;;4.43;1.10;;;;;;;21.03;69.59;101872.94;5007248;28;20108;-62
2023/06/27 09:03:36;;;;;;;5.07;1.70;;;;;;;21.00;68.83;101872.94;5007499;28;20030;-62
2023/06/27 09:06:05;;;;;;;3.15;1.33;;;;;;;20.99;68.40;101866.78;4989194;28;20064;-61
2023/06/27 09:08:32;;;;;;;4.03;1.40;;;;;;;21.01;68.30;101865.94;5007211;28;20386;-62
2023/06/27 09:10:59;;;;;;;5.25;1.33;;;;;;;20.97;67.39;101868.56;5007400;28;20036;-61
2023/06/27 09:13:24;;;;;;;4.20;1.65;;;;;;;20.97;68.68;101868.56;5007125;28;20022;-62
2023/06/27 09:15:49;;;;;;;4.35;1.33;;;;;;;20.96;68.62;101871.16;5007434;28;20045;-62
2023/06/27 09:18:15;;;;;;;5.20;1.60;;;;;;;20.99;71.52;101868.56;5007227;28;20030;-62
2023/06/27 09:20:40;;;;;;;7.72;1.40;;;;;;;20.99;68.90;101876.47;5007156;28;20041;-62
2023/06/27 09:23:06;;;;;;;4.80;1.35;;;;;;;21.01;68.06;101879.09;5006830;28;20081;-62
2023/06/27 09:25:31;;;;;;;3.08;1.42;;;;;;;20.99;68.44;101872.03;5006788;28;20092;-62
2023/06/27 09:27:58;;;;;;;3.75;1.38;;;;;;;20.99;67.59;101866.78;5007547;28;20144;-61
2023/06/27 09:30:24;;;;;;;3.42;1.10;;;;;;;20.97;65.23;101867.66;5006968;28;20022;-61
2023/06/27 09:32:57;;;;;;;2.60;1.35;;;;;;;20.97;66.30;101873.81;5007516;28;20216;-62
2023/06/27 09:35:24;;;;;;;3.40;1.20;;;;;;;21.03;66.32;101872.94;4994289;28;20480;-62
2023/06/27 09:37:51;;;;;;;2.70;1.10;;;;;;;21.09;66.27;101872.97;5007048;28;20026;-62
2023/06/27 09:40:21;;;;;;;3.70;1.40;;;;;;;21.18;68.96;101881.78;5009096;28;20025;-62
2023/06/27 09:42:53;;;;;;;4.65;1.17;;;;;;;21.20;67.04;101877.41;5010811;28;20108;-61
2023/06/27 09:45:20;;;;;;;3.80;0.88;;;;;;;21.17;61.17;101880.03;5010365;28;20030;-62
2023/06/27 09:47:52;;;;;;;2.78;1.08;;;;;;;21.18;62.20;101879.16;5010552;28;20022;-62
2023/06/27 09:50:25;;;;;;;1.98;0.80;;;;;;;21.23;59.63;101890.59;5010319;28;20030;-62
2023/06/27 09:52:59;;;;;;;3.75;1.25;;;;;;;21.30;60.90;101892.38;4998447;28;20029;-61
2023/06/27 09:55:24;;;;;;;1.48;0.85;;;;;;;21.41;63.89;101888.88;5010332;28;20022;-61
2023/06/27 09:57:51;;;;;;;2.70;1.38;;;;;;;21.57;64.45;101885.44;5010584;28;20120;-61
2023/06/27 10:00:21;;;;;;;2.63;1.30;;;;;;;21.77;64.99;101881.06;5009937;28;20437;-61
2023/06/27 10:02:50;;;;;;;5.32;1.00;;;;;;;21.92;60.77;101880.25;5010666;28;20022;-62
2023/06/27 10:05:17;;;;;;;1.77;0.70;;;;;;;21.95;57.72;101885.50;5009925;28;20076;-62
2023/06/27 10:07:43;;;;;;;3.00;1.10;;;;;;;21.97;57.63;101878.50;5010582;28;20022;-62
2023/06/27 10:10:10;;;;;;;2.70;0.90;;;;;;;21.98;58.94;101880.25;5009435;28;20553;-61
2023/06/27 10:12:35;;;;;;;4.20;0.95;;;;;;;22.02;56.23;101875.88;5010276;28;20113;-62
2023/06/27 10:15:01;;;;;;;3.15;0.85;;;;;;;22.13;58.02;101873.19;5010431;28;20107;-62
2023/06/27 10:17:28;;;;;;;1.42;0.82;;;;;;;22.33;58.79;101877.59;5010292;28;20454;-62
2023/06/27 10:19:54;;;;;;;2.22;0.80;;;;;;;22.54;57.87;101877.56;5009336;28;20033;-60
2023/06/27 10:22:21;;;;;;;1.83;0.70;;;;;;;22.65;55.76;101881.97;5010252;28;20030;-62
2023/06/27 10:24:51;;;;;;;2.03;0.95;;;;;;;22.70;55.15;101885.50;5010296;28;20492;-62
2023/06/27 10:27:25;;;;;;;1.58;0.65;;;;;;;22.70;53.73;101885.50;4997285;28;20022;-62
2023/06/27 10:29:50;;;;;;;1.77;0.70;;;;;;;22.71;50.48;101881.97;5009165;28;20063;-61
2023/06/27 10:32:17;;;;;;;1.95;0.65;;;;;;;22.83;52.17;101885.47;5009712;28;20022;-62
2023/06/27 10:34:44;;;;;;;2.88;0.73;;;;;;;22.98;50.66;101888.06;5009709;28;20495;-62
2023/06/27 10:37:25;;;;;;;2.78;0.80;;;;;;;23.10;51.91;101894.16;5009547;28;20022;-62
2023/06/27 10:40:04;;;;;;;3.53;0.60;;;;;;;23.32;51.21;101883.50;5009778;28;20478;-62
2023/06/27 10:42:31;;;;;;;2.83;0.70;;;;;;;23.48;49.35;101874.63;5009733;28;20074;-61
2023/06/27 10:44:56;;;;;;;3.63;0.80;;;;;;;23.62;46.08;101876.28;5009122;28;20022;-61
2023/06/27 10:47:22;;;;;;;1.50;0.50;;;;;;;23.81;49.58;101870.88;5009374;28;20076;-62
2023/06/27 10:49:48;;;;;;;1.88;0.73;;;;;;;23.89;46.03;101873.50;5009661;28;20038;-62
2023/06/27 10:52:21;;;;;;;3.00;0.70;;;;;;;23.97;48.84;101871.66;5008735;28;20541;-62
2023/06/27 10:55:15;;;;;;;1.92;0.70;;;;;;;24.11;48.30;101866.22;5009118;28;20030;-62
2023/06/27 10:57:43;;;;;;;3.17;0.73;;;;;;;24.13;45.72;101859.16;4997053;28;20104;-62
2023/06/27 11:00:13;;;;;;;3.70;0.80;;;;;;;24.15;47.29;101864.44;5009122;28;20080;-62
2023/06/27 11:02:45;;;;;;;1.83;0.70;;;;;;;24.23;47.66;101863.50;5009467;28;20145;-61
2023/06/27 11:05:16;;;;;;;1.73;0.52;;;;;;;24.33;47.17;101869.59;5008678;28;20026;-62
2023/06/27 11:07:52;;;;;;;2.40;0.68;;;;;;;24.43;44.32;101864.22;5009072;28;20025;-62
2023/06/27 11:10:23;;;;;;;3.33;0.95;;;;;;;24.41;44.20;101871.31;5008793;28;20030;-62
2023/06/27 11:12:49;;;;;;;1.50;0.60;;;;;;;24.40;42.13;101874.81;5009573;28;20029;-62
2023/06/27 11:15:17;;;;;;;1.40;1.17;;;;;;;24.43;44.70;101874.81;5009037;28;20026;-62
2023/06/27 11:17:45;;;;;;;2.58;0.73;;;;;;;24.31;44.37;101870.50;5008577;28;20029;-62